createdAt,value
2022-08-26T00:00:54.570Z,16.28
2022-08-26T00:03:57.136Z,16.27
2022-08-26T00:06:59.996Z,16.23
2022-08-26T00:10:02.579Z,16.19
2022-08-26T00:13:06.220Z,16.20
2022-08-26T00:16:09.092Z,16.23
2022-08-26T00:19:13.753Z,16.27
2022-08-26T00:22:20.307Z,16.21
2022-08-26T00:25:23.937Z,16.15
2022-08-26T00:28:26.632Z,16.11
2022-08-26T00:31:28.935Z,16.12
2022-08-26T00:34:33.449Z,16.13
2022-08-26T00:37:36.536Z,16.13
2022-08-26T00:40:46.103Z,16.10
2022-08-26T00:43:48.967Z,16.05
2022-08-26T00:46:58.497Z,16.02
2022-08-26T00:50:06.974Z,16.04
2022-08-26T00:53:25.873Z,16.02
2022-08-26T00:56:38.419Z,15.98
2022-08-26T00:59:41.182Z,15.94
2022-08-26T01:02:46.864Z,15.91
2022-08-26T01:05:52.039Z,15.86
2022-08-26T01:08:56.475Z,15.82
2022-08-26T01:12:01.830Z,15.80
2022-08-26T01:15:04.701Z,15.78
2022-08-26T01:18:08.271Z,15.82
2022-08-26T01:21:27.731Z,15.84
2022-08-26T01:24:31.877Z,15.85
2022-08-26T01:27:35.608Z,15.81
2022-08-26T01:30:41.018Z,15.74
2022-08-26T01:33:51.667Z,15.71
2022-08-26T01:37:08.243Z,15.74
2022-08-26T01:40:21.002Z,15.74
2022-08-26T01:43:27.749Z,15.74
2022-08-26T01:46:30.918Z,15.70
2022-08-26T01:49:35.982Z,15.66
2022-08-26T01:52:42.687Z,15.64
2022-08-26T01:55:49.140Z,15.64
2022-08-26T01:58:57.821Z,15.67
2022-08-26T02:01:59.906Z,15.71
2022-08-26T02:05:05.691Z,15.71
2022-08-26T02:08:08.767Z,15.69
2022-08-26T02:11:11.295Z,15.70
2022-08-26T02:14:21.116Z,15.67
2022-08-26T02:17:44.846Z,15.65
2022-08-26T02:20:46.841Z,15.64
2022-08-26T02:23:55.984Z,15.66
2022-08-26T02:26:58.864Z,15.68
2022-08-26T02:30:12.586Z,15.66
2022-08-26T02:33:14.937Z,15.59
2022-08-26T02:36:28.606Z,15.57
2022-08-26T02:39:31.728Z,15.49
2022-08-26T02:42:33.846Z,15.50
2022-08-26T02:45:36.581Z,15.51
2022-08-26T02:48:39.545Z,15.46
2022-08-26T02:51:41.592Z,15.45
2022-08-26T02:54:45.466Z,15.38
2022-08-26T02:57:47.684Z,15.37
2022-08-26T03:00:52.872Z,15.38
2022-08-26T03:03:55.632Z,15.38
2022-08-26T03:06:58.114Z,15.41
2022-08-26T03:10:00.893Z,15.40
2022-08-26T03:13:05.158Z,15.42
2022-08-26T03:16:08.471Z,15.39
2022-08-26T03:19:11.685Z,15.37
2022-08-26T03:22:14.490Z,15.38
2022-08-26T03:25:17.818Z,15.38
2022-08-26T03:28:20.895Z,15.34
2022-08-26T03:31:24.628Z,15.35
2022-08-26T03:34:27.166Z,15.34
2022-08-26T03:37:29.809Z,15.33
2022-08-26T03:40:34.089Z,15.33
2022-08-26T03:43:36.131Z,15.33
2022-08-26T03:46:38.794Z,15.31
2022-08-26T03:49:42.074Z,15.31
2022-08-26T03:52:44.314Z,15.29
2022-08-26T03:55:47.141Z,15.25
2022-08-26T03:58:54.885Z,15.21
2022-08-26T04:01:56.882Z,15.20
2022-08-26T04:04:58.900Z,15.21
2022-08-26T04:08:00.880Z,15.20
2022-08-26T04:11:03.040Z,15.20
2022-08-26T04:14:08.812Z,15.20
2022-08-26T04:17:11.621Z,15.17
2022-08-26T04:20:18.539Z,15.20
2022-08-26T04:23:20.727Z,15.23
2022-08-26T04:26:23.670Z,15.26
2022-08-26T04:29:27.074Z,15.28
2022-08-26T04:32:29.047Z,15.29
2022-08-26T04:35:32.084Z,15.28
2022-08-26T04:38:34.689Z,15.29
2022-08-26T04:41:37.152Z,15.31
2022-08-26T04:44:39.169Z,15.35
2022-08-26T04:47:41.583Z,15.40
2022-08-26T04:50:43.910Z,15.45
2022-08-26T04:53:47.090Z,15.54
2022-08-26T04:56:50.826Z,15.62
2022-08-26T04:59:53.328Z,15.69
2022-08-26T05:02:55.318Z,15.77
2022-08-26T05:05:57.923Z,15.84
2022-08-26T05:08:59.854Z,15.92
2022-08-26T05:12:01.850Z,15.97
2022-08-26T05:15:05.794Z,16.02
2022-08-26T05:18:08.249Z,16.08
2022-08-26T05:21:20.221Z,16.20
2022-08-26T05:24:22.261Z,16.33
2022-08-26T05:27:24.377Z,16.46
2022-08-26T05:30:26.662Z,16.58
2022-08-26T05:33:29.576Z,16.66
2022-08-26T05:36:33.902Z,16.71
2022-08-26T05:39:36.976Z,16.78
2022-08-26T05:42:39.200Z,16.85
2022-08-26T05:45:48.410Z,16.98
2022-08-26T05:48:53.908Z,17.12
2022-08-26T05:51:56.141Z,17.20
2022-08-26T05:54:58.537Z,17.38
2022-08-26T05:58:01.097Z,17.56
2022-08-26T06:01:16.680Z,17.76
2022-08-26T06:04:20.065Z,17.93
2022-08-26T06:07:42.258Z,18.12
2022-08-26T06:10:45.123Z,18.34
2022-08-26T06:13:47.972Z,18.55
2022-08-26T06:16:50.841Z,18.73
2022-08-26T06:19:53.262Z,18.90
2022-08-26T06:23:13.673Z,19.12
2022-08-26T06:26:17.390Z,19.36
2022-08-26T06:29:24.137Z,19.56
2022-08-26T06:32:28.151Z,19.79
2022-08-26T06:35:37.164Z,20.05
2022-08-26T06:38:39.319Z,20.30
2022-08-26T06:41:43.889Z,20.56
2022-08-26T06:44:52.071Z,20.85
2022-08-26T06:47:54.077Z,21.16
2022-08-26T06:51:25.942Z,21.41
2022-08-26T06:54:32.599Z,21.58
2022-08-26T06:57:37.672Z,21.75
2022-08-26T07:00:41.832Z,21.94
2022-08-26T07:03:52.325Z,22.17
2022-08-26T07:06:57.466Z,22.36
2022-08-26T07:10:00.066Z,22.59
2022-08-26T07:13:02.306Z,22.84
2022-08-26T07:16:12.289Z,23.18
2022-08-26T07:19:30.225Z,23.46
2022-08-26T07:22:34.105Z,23.71
2022-08-26T07:25:42.129Z,23.94
2022-08-26T07:28:46.461Z,24.36
2022-08-26T07:31:48.505Z,24.85
2022-08-26T07:34:50.503Z,25.27
2022-08-26T07:37:56.899Z,25.71
2022-08-26T07:40:59.654Z,26.09
2022-08-26T07:44:02.536Z,26.30
2022-08-26T07:47:10.547Z,26.52
2022-08-26T07:50:48.883Z,26.90
2022-08-26T07:53:52.638Z,27.15
2022-08-26T07:56:55.804Z,27.41
2022-08-26T07:59:59.043Z,27.69
2022-08-26T08:03:03.626Z,27.84
2022-08-26T08:06:05.853Z,28.01
2022-08-26T08:09:08.345Z,28.17
2022-08-26T08:12:14.146Z,28.21
2022-08-26T08:15:18.272Z,28.45
2022-08-26T08:18:23.467Z,28.63
2022-08-26T08:21:26.269Z,28.49
2022-08-26T08:24:29.133Z,28.63
2022-08-26T08:27:34.011Z,28.77
2022-08-26T08:30:39.098Z,29.11
2022-08-26T08:33:42.157Z,29.50
2022-08-26T08:36:49.071Z,29.79
2022-08-26T08:39:51.546Z,30.23
2022-08-26T08:42:56.751Z,30.40
2022-08-26T08:46:04.373Z,30.41
2022-08-26T08:49:06.582Z,30.62
2022-08-26T08:52:29.618Z,30.69
2022-08-26T08:55:44.507Z,30.96
2022-08-26T08:58:48.294Z,30.90
2022-08-26T09:01:52.443Z,30.91
2022-08-26T09:05:25.140Z,30.89
2022-08-26T09:08:31.568Z,30.79
2022-08-26T09:11:35.286Z,30.26
2022-08-26T09:14:37.494Z,30.41
2022-08-26T09:18:00.333Z,30.60
2022-08-26T09:21:06.809Z,30.34
2022-08-26T09:24:11.066Z,30.15
2022-08-26T09:27:37.598Z,30.09
2022-08-26T09:30:39.879Z,30.35
2022-08-26T09:33:43.766Z,30.49
2022-08-26T09:36:48.732Z,30.37
2022-08-26T09:39:50.821Z,30.31
2022-08-26T09:43:23.170Z,30.09
2022-08-26T09:46:28.155Z,30.05
2022-08-26T09:49:39.110Z,30.16
2022-08-26T09:52:43.264Z,30.11
2022-08-26T09:55:47.988Z,30.15
2022-08-26T09:58:52.032Z,29.83
2022-08-26T10:01:55.121Z,30.05
2022-08-26T10:05:09.290Z,30.54
2022-08-26T10:08:23.150Z,30.72
2022-08-26T10:11:40.050Z,30.76
2022-08-26T10:15:08.513Z,30.22
2022-08-26T10:18:25.240Z,30.56
2022-08-26T10:21:43.271Z,31.25
2022-08-26T10:24:51.951Z,32.10
2022-08-26T10:28:18.227Z,32.36
2022-08-26T10:31:28.261Z,32.28
2022-08-26T10:34:32.714Z,32.26
2022-08-26T10:37:40.094Z,32.20
2022-08-26T10:41:00.944Z,32.21
2022-08-26T10:44:07.417Z,32.22
2022-08-26T10:47:16.664Z,32.01
2022-08-26T10:50:23.576Z,32.23
2022-08-26T10:53:43.901Z,32.85
2022-08-26T10:56:54.916Z,33.35
2022-08-26T11:00:31.342Z,34.01
2022-08-26T11:03:40.737Z,33.66
2022-08-26T11:06:46.303Z,33.25
2022-08-26T11:09:49.748Z,33.68
2022-08-26T11:12:59.512Z,33.63
2022-08-26T11:16:01.597Z,33.41
2022-08-26T11:19:04.684Z,33.75
2022-08-26T11:22:31.376Z,34.34
2022-08-26T11:25:33.677Z,34.06
2022-08-26T11:28:50.792Z,34.38
2022-08-26T11:31:57.058Z,34.89
2022-08-26T11:35:07.869Z,35.32
2022-08-26T11:38:18.671Z,34.71
2022-08-26T11:41:24.779Z,34.07
2022-08-26T11:44:35.981Z,34.16
2022-08-26T11:47:38.286Z,34.15
2022-08-26T11:50:40.827Z,34.35
2022-08-26T11:53:47.362Z,34.89
2022-08-26T11:56:53.281Z,35.12
2022-08-26T11:59:56.748Z,35.42
2022-08-26T12:03:01.024Z,35.64
2022-08-26T12:06:10.308Z,34.95
2022-08-26T12:09:31.697Z,34.14
2022-08-26T12:12:38.868Z,34.64
2022-08-26T12:15:41.020Z,34.78
2022-08-26T12:18:44.857Z,35.01
2022-08-26T12:21:49.131Z,35.80
2022-08-26T12:24:59.081Z,36.23
2022-08-26T12:28:06.368Z,36.48
2022-08-26T12:31:08.476Z,36.54
2022-08-26T12:34:17.930Z,36.78
2022-08-26T12:37:20.899Z,36.50
2022-08-26T12:40:30.888Z,35.83
2022-08-26T12:43:51.149Z,35.45
2022-08-26T12:46:53.612Z,35.93
2022-08-26T12:50:27.561Z,36.55
2022-08-26T12:53:32.509Z,36.55
2022-08-26T12:56:42.024Z,37.09
2022-08-26T12:59:45.212Z,37.19
2022-08-26T13:02:47.673Z,37.15
2022-08-26T13:05:49.713Z,37.12
2022-08-26T13:08:53.336Z,37.37
2022-08-26T13:11:56.385Z,37.78
2022-08-26T13:15:00.612Z,37.24
2022-08-26T13:18:03.475Z,36.37
2022-08-26T13:21:11.400Z,35.57
2022-08-26T13:24:30.880Z,35.22
2022-08-26T13:27:33.802Z,35.55
2022-08-26T13:30:35.868Z,37.05
2022-08-26T13:33:38.444Z,38.25
2022-08-26T13:36:44.042Z,38.04
2022-08-26T13:39:46.549Z,36.71
2022-08-26T13:42:49.936Z,35.83
2022-08-26T13:45:52.481Z,35.39
2022-08-26T13:48:54.805Z,34.70
2022-08-26T13:51:56.797Z,33.89
2022-08-26T13:55:00.590Z,33.33
2022-08-26T13:58:02.883Z,32.97
2022-08-26T14:01:05.064Z,32.48
2022-08-26T14:04:08.635Z,32.49
2022-08-26T14:07:10.712Z,32.53
2022-08-26T14:10:13.189Z,32.17
2022-08-26T14:13:15.446Z,31.71
2022-08-26T14:16:33.596Z,31.34
2022-08-26T14:19:35.759Z,30.94
2022-08-26T14:22:57.402Z,30.71
2022-08-26T14:26:08.432Z,30.63
2022-08-26T14:29:14.635Z,32.05
2022-08-26T14:32:27.578Z,32.07
2022-08-26T14:35:30.849Z,35.29
2022-08-26T14:38:32.926Z,36.01
2022-08-26T14:41:42.735Z,34.35
2022-08-26T14:44:47.594Z,32.86
2022-08-26T14:47:51.371Z,31.47
2022-08-26T14:50:53.479Z,30.37
2022-08-26T14:54:13.802Z,29.90
2022-08-26T14:57:15.904Z,29.66
2022-08-26T15:00:19.493Z,29.49
2022-08-26T15:03:22.108Z,29.59
2022-08-26T15:06:24.432Z,29.87
2022-08-26T15:09:29.222Z,30.66
2022-08-26T15:12:31.551Z,30.65
2022-08-26T15:15:33.658Z,30.12
2022-08-26T15:18:35.653Z,29.53
2022-08-26T15:21:38.082Z,29.03
2022-08-26T15:24:40.075Z,28.70
2022-08-26T15:27:42.259Z,28.39
2022-08-26T15:30:44.443Z,28.09
2022-08-26T15:33:47.629Z,27.75
2022-08-26T15:36:50.213Z,27.63
2022-08-26T15:39:53.163Z,27.61
2022-08-26T15:43:11.420Z,27.51
2022-08-26T15:46:19.438Z,27.25
2022-08-26T15:49:24.287Z,27.07
2022-08-26T15:52:26.823Z,26.77
2022-08-26T15:55:28.875Z,26.54
2022-08-26T15:58:31.002Z,26.51
2022-08-26T16:05:08.424Z,26.40
2022-08-26T16:08:11.304Z,26.19
2022-08-26T16:11:14.541Z,26.20
2022-08-26T16:14:19.443Z,26.22
2022-08-26T16:17:22.749Z,26.06
2022-08-26T16:20:26.354Z,25.89
2022-08-26T16:23:29.041Z,25.71
2022-08-26T16:26:34.955Z,25.45
2022-08-26T16:29:39.422Z,25.28
2022-08-26T16:32:41.577Z,25.25
2022-08-26T16:35:44.949Z,25.14
2022-08-26T16:38:53.356Z,25.04
2022-08-26T16:41:55.525Z,24.96
2022-08-26T16:44:57.671Z,24.79
2022-08-26T16:47:59.930Z,24.56
2022-08-26T16:51:02.061Z,24.45
2022-08-26T16:54:04.460Z,24.49
2022-08-26T16:57:12.000Z,24.55
2022-08-26T17:00:18.292Z,24.56
2022-08-26T17:03:20.488Z,24.47
2022-08-26T17:06:23.139Z,24.45
2022-08-26T17:09:25.969Z,24.47
2022-08-26T17:12:28.587Z,24.49
2022-08-26T17:15:30.751Z,24.41
2022-08-26T17:18:33.759Z,24.38
2022-08-26T17:21:38.824Z,24.34
2022-08-26T17:24:42.082Z,24.18
2022-08-26T17:27:44.212Z,24.09
2022-08-26T17:30:47.018Z,23.95
2022-08-26T17:33:53.691Z,23.73
2022-08-26T17:37:02.406Z,23.60
2022-08-26T17:40:11.955Z,23.59
2022-08-26T17:43:16.086Z,23.74
2022-08-26T17:46:18.904Z,23.64
2022-08-26T17:49:22.020Z,23.55
2022-08-26T17:52:24.660Z,23.58
2022-08-26T17:55:26.738Z,23.51
2022-08-26T17:58:28.735Z,23.47
2022-08-26T18:01:31.309Z,23.47
2022-08-26T18:04:33.472Z,23.30
2022-08-26T18:07:41.340Z,23.10
2022-08-26T18:10:48.357Z,22.98
2022-08-26T18:13:51.393Z,22.90
2022-08-26T18:16:54.030Z,22.78
2022-08-26T18:19:56.031Z,22.66
2022-08-26T18:22:58.260Z,22.64
2022-08-26T18:26:00.339Z,22.62
2022-08-26T18:29:04.877Z,22.47
2022-08-26T18:32:06.976Z,22.42
2022-08-26T18:35:10.110Z,22.34
2022-08-26T18:38:14.128Z,22.18
2022-08-26T18:41:16.760Z,22.15
2022-08-26T18:44:21.712Z,22.01
2022-08-26T18:47:23.837Z,21.93
2022-08-26T18:50:25.874Z,21.78
2022-08-26T18:53:28.649Z,21.76
2022-08-26T18:56:31.833Z,21.62
2022-08-26T18:59:37.506Z,21.47
2022-08-26T19:02:40.061Z,21.41
2022-08-26T19:05:42.639Z,21.39
2022-08-26T19:08:46.212Z,21.37
2022-08-26T19:11:52.532Z,21.19
2022-08-26T19:14:54.756Z,21.14
2022-08-26T19:17:57.372Z,21.07
2022-08-26T19:20:59.674Z,21.06
2022-08-26T19:24:05.086Z,21.14
2022-08-26T19:27:10.633Z,21.11
2022-08-26T19:30:15.902Z,21.00
2022-08-26T19:33:19.366Z,20.89
2022-08-26T19:36:24.007Z,20.84
2022-08-26T19:39:27.087Z,20.80
2022-08-26T19:42:30.295Z,20.75
2022-08-26T19:45:33.990Z,20.75
2022-08-26T19:48:36.958Z,20.72
2022-08-26T19:51:39.397Z,20.69
2022-08-26T19:54:41.771Z,20.65
2022-08-26T19:57:45.432Z,20.56
2022-08-26T20:00:47.787Z,20.37
2022-08-26T20:03:50.551Z,20.30
2022-08-26T20:06:53.797Z,20.30
2022-08-26T20:10:00.857Z,20.32
2022-08-26T20:13:03.151Z,20.32
2022-08-26T20:16:06.220Z,20.30
2022-08-26T20:19:26.832Z,20.16
2022-08-26T20:22:29.403Z,20.11
2022-08-26T20:25:33.295Z,20.18
2022-08-26T20:28:35.628Z,20.21
2022-08-26T20:31:39.571Z,20.15
2022-08-26T20:34:41.891Z,20.04
2022-08-26T20:37:44.276Z,19.92
2022-08-26T20:40:46.428Z,19.83
2022-08-26T20:48:41.530Z,19.78
2022-08-26T20:51:45.021Z,19.84
2022-08-26T20:54:47.290Z,19.81
2022-08-26T20:57:49.469Z,19.77
2022-08-26T21:00:52.599Z,19.70
2022-08-26T21:03:57.536Z,19.70
2022-08-26T21:07:01.484Z,19.73
2022-08-26T21:10:04.437Z,19.62
2022-08-26T21:13:07.177Z,19.53
2022-08-26T21:16:12.168Z,19.48
2022-08-26T21:19:18.308Z,19.50
2022-08-26T21:22:20.606Z,19.47
2022-08-26T21:25:22.665Z,19.39
2022-08-26T21:28:25.270Z,19.36
2022-08-26T21:31:29.807Z,19.38
2022-08-26T21:34:31.954Z,19.38
2022-08-26T21:37:34.047Z,19.38
2022-08-26T21:40:36.202Z,19.42
2022-08-26T21:43:39.240Z,19.43
2022-08-26T21:46:43.978Z,19.41
2022-08-26T21:49:46.069Z,19.40
2022-08-26T21:52:48.152Z,19.38
2022-08-26T21:55:50.239Z,19.38
2022-08-26T21:58:55.170Z,19.30
2022-08-26T22:01:58.611Z,19.25
2022-08-26T22:05:00.934Z,19.23
2022-08-26T22:08:03.393Z,19.24
2022-08-26T22:11:06.545Z,19.23
2022-08-26T22:14:08.768Z,19.28
2022-08-26T22:17:10.801Z,19.34
2022-08-26T22:20:16.742Z,19.43
2022-08-26T22:23:20.910Z,19.51
2022-08-26T22:26:25.739Z,19.58
2022-08-26T22:29:28.198Z,19.59
2022-08-26T22:32:30.315Z,19.55
2022-08-26T22:35:32.432Z,19.55
2022-08-26T22:38:34.667Z,19.49
2022-08-26T22:41:36.837Z,19.49
2022-08-26T22:44:39.094Z,19.53
2022-08-26T22:47:41.230Z,19.61
2022-08-26T22:50:44.857Z,19.66
2022-08-26T22:53:47.066Z,19.68
2022-08-26T22:56:49.220Z,19.67
2022-08-26T22:59:51.279Z,19.66
2022-08-26T23:02:53.357Z,19.62
2022-08-26T23:05:56.219Z,19.58
2022-08-26T23:08:58.280Z,19.51
2022-08-26T23:12:00.414Z,19.48
2022-08-26T23:15:02.569Z,19.44
2022-08-26T23:18:04.887Z,19.44
2022-08-26T23:21:07.703Z,19.39
2022-08-26T23:24:10.615Z,19.39
2022-08-26T23:27:12.680Z,19.36
2022-08-26T23:30:24.353Z,19.34
2022-08-26T23:33:46.339Z,19.33
2022-08-26T23:36:48.925Z,19.31
2022-08-26T23:39:50.978Z,19.34
2022-08-26T23:42:54.961Z,19.36
2022-08-26T23:45:57.049Z,19.41
2022-08-26T23:48:59.641Z,19.44
2022-08-26T23:52:21.461Z,19.48
2022-08-26T23:55:23.721Z,19.44
2022-08-26T23:58:25.924Z,19.43
